sensor_id;sensor_type;location;lat;lon;timestamp;pressure;altitude;pressure_sealevel;temperature;humidity
20019;BME280;10170;42.502;26.526;2023-02-18T00:01:14;100447.00;;;6.37;100.00
20019;BME280;10170;42.502;26.526;2023-02-18T00:03:41;100429.03;;;6.41;100.00
20019;BME280;10170;42.502;26.526;2023-02-18T00:06:17;100421.56;;;6.28;100.00
20019;BME280;10170;42.502;26.526;2023-02-18T00:08:45;100423.34;;;6.28;100.00
20019;BME280;10170;42.502;26.526;2023-02-18T00:11:13;100421.50;;;6.20;100.00
20019;BME280;10170;42.502;26.526;2023-02-18T00:13:41;100409.94;;;6.13;100.00
20019;BME280;10170;42.502;26.526;2023-02-18T00:16:10;100421.22;;;6.23;100.00
20019;BME280;10170;42.502;26.526;2023-02-18T00:18:38;100408.63;;;6.09;100.00
20019;BME280;10170;42.502;26.526;2023-02-18T00:21:06;100410.22;;;6.02;100.00
20019;BME280;10170;42.502;26.526;2023-02-18T00:23:33;100411.53;;;5.98;100.00
20019;BME280;10170;42.502;26.526;2023-02-18T00:26:08;100401.59;;;5.92;100.00
20019;BME280;10170;42.502;26.526;2023-02-18T00:28:36;100421.44;;;6.04;100.00
20019;BME280;10170;42.502;26.526;2023-02-18T00:31:09;100422.94;;;6.07;100.00
20019;BME280;10170;42.502;26.526;2023-02-18T00:33:36;100424.25;;;6.03;100.00
20019;BME280;10170;42.502;26.526;2023-02-18T00:36:05;100414.47;;;5.95;100.00
20019;BME280;10170;42.502;26.526;2023-02-18T00:38:32;100405.56;;;5.96;100.00
20019;BME280;10170;42.502;26.526;2023-02-18T00:40:59;100387.78;;;6.06;100.00
20019;BME280;10170;42.502;26.526;2023-02-18T00:43:26;100394.53;;;6.01;100.00
20019;BME280;10170;42.502;26.526;2023-02-18T00:45:54;100383.94;;;5.93;100.00
20019;BME280;10170;42.502;26.526;2023-02-18T00:48:20;100382.00;;;5.77;100.00
20019;BME280;10170;42.502;26.526;2023-02-18T00:50:47;100376.97;;;5.84;100.00
20019;BME280;10170;42.502;26.526;2023-02-18T00:53:14;100366.66;;;5.73;100.00
20019;BME280;10170;42.502;26.526;2023-02-18T00:55:42;100368.47;;;5.72;100.00
20019;BME280;10170;42.502;26.526;2023-02-18T00:58:09;100367.44;;;5.65;100.00
20019;BME280;10170;42.502;26.526;2023-02-18T01:00:37;100346.69;;;5.70;100.00
20019;BME280;10170;42.502;26.526;2023-02-18T01:03:04;100360.91;;;5.77;100.00
20019;BME280;10170;42.502;26.526;2023-02-18T01:05:33;100360.56;;;5.72;100.00
20019;BME280;10170;42.502;26.526;2023-02-18T01:08:00;100362.72;;;5.77;100.00
20019;BME280;10170;42.502;26.526;2023-02-18T01:10:27;100363.84;;;5.74;100.00
20019;BME280;10170;42.502;26.526;2023-02-18T01:12:55;100355.72;;;5.93;100.00
20019;BME280;10170;42.502;26.526;2023-02-18T01:15:22;100354.13;;;6.00;100.00
20019;BME280;10170;42.502;26.526;2023-02-18T01:17:49;100367.13;;;5.94;100.00
20019;BME280;10170;42.502;26.526;2023-02-18T01:20:18;100367.47;;;5.99;100.00
20019;BME280;10170;42.502;26.526;2023-02-18T01:22:45;100366.50;;;6.00;100.00
20019;BME280;10170;42.502;26.526;2023-02-18T01:25:12;100363.34;;;5.96;100.00
20019;BME280;10170;42.502;26.526;2023-02-18T01:27:40;100356.91;;;5.99;100.00
20019;BME280;10170;42.502;26.526;2023-02-18T01:30:09;100351.16;;;6.03;100.00
20019;BME280;10170;42.502;26.526;2023-02-18T01:32:37;100362.69;;;5.94;100.00
20019;BME280;10170;42.502;26.526;2023-02-18T01:35:05;100354.72;;;5.86;100.00
20019;BME280;10170;42.502;26.526;2023-02-18T01:37:32;100357.50;;;5.85;100.00
20019;BME280;10170;42.502;26.526;2023-02-18T01:39:59;100353.91;;;5.94;100.00
20019;BME280;10170;42.502;26.526;2023-02-18T01:42:27;100340.25;;;5.98;100.00
20019;BME280;10170;42.502;26.526;2023-02-18T01:47:56;100335.84;;;5.73;100.00
20019;BME280;10170;42.502;26.526;2023-02-18T01:50:23;100316.84;;;5.70;100.00
20019;BME280;10170;42.502;26.526;2023-02-18T01:52:50;100320.91;;;5.90;100.00
20019;BME280;10170;42.502;26.526;2023-02-18T01:55:16;100318.13;;;5.91;100.00
20019;BME280;10170;42.502;26.526;2023-02-18T01:57:43;100326.69;;;5.93;100.00
20019;BME280;10170;42.502;26.526;2023-02-18T02:00:13;100312.38;;;5.96;100.00
20019;BME280;10170;42.502;26.526;2023-02-18T02:02:43;100328.38;;;6.02;100.00
20019;BME280;10170;42.502;26.526;2023-02-18T02:05:11;100326.03;;;5.06;100.00
20019;BME280;10170;42.502;26.526;2023-02-18T02:07:40;100316.38;;;4.89;100.00
20019;BME280;10170;42.502;26.526;2023-02-18T02:10:09;100314.75;;;4.53;100.00
20019;BME280;10170;42.502;26.526;2023-02-18T02:15:34;100324.78;;;4.05;100.00
20019;BME280;10170;42.502;26.526;2023-02-18T02:32:35;100326.94;;;3.18;100.00
20019;BME280;10170;42.502;26.526;2023-02-18T02:35:20;100321.69;;;2.99;100.00
20019;BME280;10170;42.502;26.526;2023-02-18T02:38:02;100312.72;;;3.02;100.00
20019;BME280;10170;42.502;26.526;2023-02-18T02:56:42;100320.28;;;3.24;100.00
20019;BME280;10170;42.502;26.526;2023-02-18T02:59:14;100330.88;;;3.42;100.00
20019;BME280;10170;42.502;26.526;2023-02-18T03:01:48;100333.28;;;3.62;100.00
20019;BME280;10170;42.502;26.526;2023-02-18T03:14:55;100307.22;;;4.41;100.00
20019;BME280;10170;42.502;26.526;2023-02-18T03:17:37;100305.53;;;4.57;100.00
20019;BME280;10170;42.502;26.526;2023-02-18T03:20:22;100317.16;;;4.64;100.00
20019;BME280;10170;42.502;26.526;2023-02-18T03:22:52;100305.00;;;4.54;100.00
20019;BME280;10170;42.502;26.526;2023-02-18T03:25:19;100315.94;;;4.76;100.00
20019;BME280;10170;42.502;26.526;2023-02-18T03:27:54;100325.44;;;4.95;100.00
20019;BME280;10170;42.502;26.526;2023-02-18T03:30:29;100326.22;;;4.87;100.00
20019;BME280;10170;42.502;26.526;2023-02-18T03:33:01;100332.03;;;4.91;100.00
20019;BME280;10170;42.502;26.526;2023-02-18T03:35:29;100333.81;;;4.90;100.00
20019;BME280;10170;42.502;26.526;2023-02-18T03:38:03;100337.66;;;4.61;100.00
20019;BME280;10170;42.502;26.526;2023-02-18T03:40:32;100336.69;;;4.26;100.00
20019;BME280;10170;42.502;26.526;2023-02-18T03:42:59;100339.91;;;4.20;100.00
20019;BME280;10170;42.502;26.526;2023-02-18T03:45:26;100332.94;;;4.47;100.00
20019;BME280;10170;42.502;26.526;2023-02-18T03:47:53;100327.59;;;4.39;100.00
20019;BME280;10170;42.502;26.526;2023-02-18T03:50:20;100325.13;;;4.37;100.00
20019;BME280;10170;42.502;26.526;2023-02-18T03:52:46;100337.59;;;4.53;100.00
20019;BME280;10170;42.502;26.526;2023-02-18T03:55:13;100327.66;;;4.47;100.00
20019;BME280;10170;42.502;26.526;2023-02-18T03:57:40;100323.97;;;4.57;100.00
20019;BME280;10170;42.502;26.526;2023-02-18T04:00:07;100321.13;;;4.51;100.00
20019;BME280;10170;42.502;26.526;2023-02-18T04:02:34;100323.16;;;4.39;100.00
20019;BME280;10170;42.502;26.526;2023-02-18T04:05:01;100316.06;;;4.04;100.00
20019;BME280;10170;42.502;26.526;2023-02-18T04:07:27;100331.34;;;3.91;100.00
20019;BME280;10170;42.502;26.526;2023-02-18T04:09:54;100323.50;;;3.82;100.00
20019;BME280;10170;42.502;26.526;2023-02-18T04:12:21;100320.22;;;3.80;100.00
20019;BME280;10170;42.502;26.526;2023-02-18T04:14:49;100320.28;;;3.88;100.00
20019;BME280;10170;42.502;26.526;2023-02-18T04:17:16;100320.81;;;3.91;100.00
20019;BME280;10170;42.502;26.526;2023-02-18T04:19:43;100330.09;;;3.95;100.00
20019;BME280;10170;42.502;26.526;2023-02-18T04:22:10;100326.81;;;3.84;100.00
20019;BME280;10170;42.502;26.526;2023-02-18T04:24:36;100316.69;;;3.62;100.00
20019;BME280;10170;42.502;26.526;2023-02-18T04:27:03;100321.16;;;3.52;100.00
20019;BME280;10170;42.502;26.526;2023-02-18T04:29:30;100317.81;;;3.13;100.00
20019;BME280;10170;42.502;26.526;2023-02-18T04:31:57;100325.47;;;2.97;100.00
20019;BME280;10170;42.502;26.526;2023-02-18T04:34:24;100325.06;;;2.35;100.00
20019;BME280;10170;42.502;26.526;2023-02-18T04:36:51;100326.44;;;2.48;100.00
20019;BME280;10170;42.502;26.526;2023-02-18T04:39:17;100318.28;;;2.32;100.00
20019;BME280;10170;42.502;26.526;2023-02-18T04:41:44;100330.97;;;2.17;100.00
20019;BME280;10170;42.502;26.526;2023-02-18T04:44:11;100330.13;;;2.07;100.00
20019;BME280;10170;42.502;26.526;2023-02-18T04:46:37;100310.22;;;1.95;100.00
20019;BME280;10170;42.502;26.526;2023-02-18T04:49:04;100286.94;;;2.11;100.00
20019;BME280;10170;42.502;26.526;2023-02-18T04:51:31;100313.88;;;2.52;100.00
20019;BME280;10170;42.502;26.526;2023-02-18T04:53:58;100304.84;;;2.92;100.00
20019;BME280;10170;42.502;26.526;2023-02-18T04:56:24;100299.44;;;3.13;100.00
20019;BME280;10170;42.502;26.526;2023-02-18T04:58:51;100303.19;;;3.47;100.00
20019;BME280;10170;42.502;26.526;2023-02-18T05:01:18;100297.94;;;3.74;100.00
20019;BME280;10170;42.502;26.526;2023-02-18T05:03:44;100295.94;;;3.86;100.00
20019;BME280;10170;42.502;26.526;2023-02-18T05:06:11;100288.69;;;3.97;100.00
20019;BME280;10170;42.502;26.526;2023-02-18T05:08:38;100287.78;;;4.06;100.00
20019;BME280;10170;42.502;26.526;2023-02-18T05:11:08;100274.38;;;4.00;100.00
20019;BME280;10170;42.502;26.526;2023-02-18T05:13:35;100280.19;;;4.03;100.00
20019;BME280;10170;42.502;26.526;2023-02-18T05:16:01;100276.75;;;4.03;100.00
20019;BME280;10170;42.502;26.526;2023-02-18T05:18:28;100283.69;;;3.94;100.00
20019;BME280;10170;42.502;26.526;2023-02-18T05:20:55;100295.97;;;4.03;100.00
20019;BME280;10170;42.502;26.526;2023-02-18T05:23:22;100302.16;;;4.12;100.00
20019;BME280;10170;42.502;26.526;2023-02-18T05:25:50;100293.44;;;4.29;100.00
20019;BME280;10170;42.502;26.526;2023-02-18T05:28:16;100311.56;;;4.32;100.00
20019;BME280;10170;42.502;26.526;2023-02-18T05:30:43;100323.22;;;4.29;100.00
20019;BME280;10170;42.502;26.526;2023-02-18T05:33:10;100327.63;;;4.11;100.00
20019;BME280;10170;42.502;26.526;2023-02-18T05:35:37;100310.59;;;3.88;100.00
20019;BME280;10170;42.502;26.526;2023-02-18T05:38:03;100324.28;;;3.92;100.00
20019;BME280;10170;42.502;26.526;2023-02-18T05:40:30;100326.25;;;3.90;100.00
20019;BME280;10170;42.502;26.526;2023-02-18T05:42:57;100335.66;;;3.92;100.00
20019;BME280;10170;42.502;26.526;2023-02-18T05:45:24;100344.16;;;3.77;100.00
20019;BME280;10170;42.502;26.526;2023-02-18T05:47:51;100337.94;;;4.05;100.00
20019;BME280;10170;42.502;26.526;2023-02-18T05:50:17;100333.19;;;4.08;100.00
20019;BME280;10170;42.502;26.526;2023-02-18T05:52:44;100302.91;;;3.77;100.00
20019;BME280;10170;42.502;26.526;2023-02-18T05:55:11;100330.09;;;3.95;100.00
20019;BME280;10170;42.502;26.526;2023-02-18T05:57:37;100337.47;;;4.09;100.00
20019;BME280;10170;42.502;26.526;2023-02-18T06:00:05;100325.53;;;4.15;100.00
20019;BME280;10170;42.502;26.526;2023-02-18T06:02:33;100321.78;;;4.17;100.00
20019;BME280;10170;42.502;26.526;2023-02-18T06:04:59;100304.72;;;4.21;100.00
20019;BME280;10170;42.502;26.526;2023-02-18T06:07:26;100304.28;;;4.44;100.00
20019;BME280;10170;42.502;26.526;2023-02-18T06:09:53;100309.31;;;4.72;100.00
20019;BME280;10170;42.502;26.526;2023-02-18T06:12:20;100320.16;;;4.95;100.00
20019;BME280;10170;42.502;26.526;2023-02-18T06:14:47;100318.91;;;4.99;100.00
20019;BME280;10170;42.502;26.526;2023-02-18T06:17:14;100326.88;;;5.07;100.00
20019;BME280;10170;42.502;26.526;2023-02-18T06:19:41;100324.88;;;5.26;100.00
20019;BME280;10170;42.502;26.526;2023-02-18T06:22:08;100333.44;;;5.28;100.00
20019;BME280;10170;42.502;26.526;2023-02-18T06:24:35;100335.56;;;4.82;100.00
20019;BME280;10170;42.502;26.526;2023-02-18T06:27:03;100331.16;;;5.08;100.00
20019;BME280;10170;42.502;26.526;2023-02-18T06:29:30;100340.22;;;5.05;100.00
20019;BME280;10170;42.502;26.526;2023-02-18T06:31:57;100319.84;;;5.15;100.00
20019;BME280;10170;42.502;26.526;2023-02-18T06:34:25;100318.31;;;5.13;100.00
20019;BME280;10170;42.502;26.526;2023-02-18T06:36:52;100319.28;;;5.29;100.00
20019;BME280;10170;42.502;26.526;2023-02-18T06:39:19;100305.47;;;5.10;100.00
20019;BME280;10170;42.502;26.526;2023-02-18T06:41:46;100309.91;;;5.09;100.00
20019;BME280;10170;42.502;26.526;2023-02-18T06:44:12;100282.88;;;5.07;100.00
20019;BME280;10170;42.502;26.526;2023-02-18T06:46:43;100311.03;;;5.32;100.00
20019;BME280;10170;42.502;26.526;2023-02-18T06:49:10;100304.81;;;5.33;100.00
20019;BME280;10170;42.502;26.526;2023-02-18T06:51:37;100296.81;;;5.25;100.00
20019;BME280;10170;42.502;26.526;2023-02-18T06:54:03;100282.97;;;5.23;100.00
20019;BME280;10170;42.502;26.526;2023-02-18T06:56:31;100304.81;;;5.33;100.00
20019;BME280;10170;42.502;26.526;2023-02-18T06:58:58;100304.91;;;5.58;100.00
20019;BME280;10170;42.502;26.526;2023-02-18T07:01:25;100309.09;;;5.68;100.00
20019;BME280;10170;42.502;26.526;2023-02-18T07:03:51;100312.28;;;5.80;100.00
20019;BME280;10170;42.502;26.526;2023-02-18T07:06:18;100301.00;;;5.36;100.00
20019;BME280;10170;42.502;26.526;2023-02-18T07:08:45;100314.41;;;5.43;100.00
20019;BME280;10170;42.502;26.526;2023-02-18T07:11:12;100315.03;;;5.36;100.00
20019;BME280;10170;42.502;26.526;2023-02-18T07:13:38;100304.88;;;5.50;100.00
20019;BME280;10170;42.502;26.526;2023-02-18T07:16:05;100313.75;;;5.49;100.00
20019;BME280;10170;42.502;26.526;2023-02-18T07:18:33;100314.00;;;5.63;100.00
20019;BME280;10170;42.502;26.526;2023-02-18T07:21:00;100302.56;;;5.80;100.00
20019;BME280;10170;42.502;26.526;2023-02-18T07:23:27;100301.06;;;5.78;100.00
20019;BME280;10170;42.502;26.526;2023-02-18T07:26:02;100301.06;;;5.78;100.00
20019;BME280;10170;42.502;26.526;2023-02-18T07:28:29;100300.47;;;5.92;100.00
20019;BME280;10170;42.502;26.526;2023-02-18T07:30:56;100300.22;;;6.11;100.00
20019;BME280;10170;42.502;26.526;2023-02-18T07:33:22;100288.03;;;6.18;100.00
20019;BME280;10170;42.502;26.526;2023-02-18T07:35:54;100275.59;;;6.02;100.00
20019;BME280;10170;42.502;26.526;2023-02-18T07:38:21;100296.41;;;6.13;100.00
20019;BME280;10170;42.502;26.526;2023-02-18T07:40:49;100303.56;;;6.29;100.00
20019;BME280;10170;42.502;26.526;2023-02-18T07:43:16;100300.91;;;6.37;100.00
20019;BME280;10170;42.502;26.526;2023-02-18T07:45:43;100302.75;;;6.69;100.00
20019;BME280;10170;42.502;26.526;2023-02-18T07:48:11;100308.38;;;6.82;100.00
20019;BME280;10170;42.502;26.526;2023-02-18T07:50:39;100312.50;;;7.00;100.00
20019;BME280;10170;42.502;26.526;2023-02-18T07:53:06;100296.81;;;6.91;100.00
20019;BME280;10170;42.502;26.526;2023-02-18T07:55:33;100300.13;;;7.01;100.00
20019;BME280;10170;42.502;26.526;2023-02-18T07:58:20;100291.88;;;6.88;100.00
20019;BME280;10170;42.502;26.526;2023-02-18T08:00:47;100301.09;;;7.00;100.00
20019;BME280;10170;42.502;26.526;2023-02-18T08:03:18;100292.16;;;7.17;100.00
20019;BME280;10170;42.502;26.526;2023-02-18T08:05:49;100310.63;;;7.49;100.00
20019;BME280;10170;42.502;26.526;2023-02-18T08:08:22;100307.75;;;7.67;100.00
20019;BME280;10170;42.502;26.526;2023-02-18T08:10:50;100303.22;;;7.75;100.00
20019;BME280;10170;42.502;26.526;2023-02-18T08:13:17;100285.00;;;7.80;100.00
20019;BME280;10170;42.502;26.526;2023-02-18T08:15:44;100295.91;;;7.85;100.00
20019;BME280;10170;42.502;26.526;2023-02-18T08:18:21;100282.59;;;7.63;100.00
20019;BME280;10170;42.502;26.526;2023-02-18T08:20:49;100280.00;;;7.55;100.00
20019;BME280;10170;42.502;26.526;2023-02-18T08:23:20;100264.63;;;7.50;100.00
20019;BME280;10170;42.502;26.526;2023-02-18T08:25:49;100280.25;;;7.76;100.00
20019;BME280;10170;42.502;26.526;2023-02-18T08:28:18;100280.72;;;7.79;100.00
20019;BME280;10170;42.502;26.526;2023-02-18T08:30:45;100274.09;;;7.83;100.00
20019;BME280;10170;42.502;26.526;2023-02-18T08:33:13;100273.75;;;7.78;100.00
20019;BME280;10170;42.502;26.526;2023-02-18T08:35:41;100243.00;;;7.77;100.00
20019;BME280;10170;42.502;26.526;2023-02-18T08:38:08;100272.97;;;8.08;100.00
20019;BME280;10170;42.502;26.526;2023-02-18T08:40:35;100271.06;;;8.25;100.00
20019;BME280;10170;42.502;26.526;2023-02-18T08:43:01;100249.16;;;8.00;100.00
20019;BME280;10170;42.502;26.526;2023-02-18T08:45:28;100259.66;;;8.24;100.00
20019;BME280;10170;42.502;26.526;2023-02-18T08:47:55;100257.59;;;8.34;100.00
20019;BME280;10170;42.502;26.526;2023-02-18T08:50:42;100252.13;;;8.59;100.00
20019;BME280;10170;42.502;26.526;2023-02-18T08:53:08;100255.69;;;8.66;100.00
20019;BME280;10170;42.502;26.526;2023-02-18T08:55:39;100253.56;;;8.61;100.00
20019;BME280;10170;42.502;26.526;2023-02-18T08:58:06;100229.81;;;8.68;100.00
20019;BME280;10170;42.502;26.526;2023-02-18T09:00:33;100251.00;;;8.90;100.00
20019;BME280;10170;42.502;26.526;2023-02-18T09:03:00;100247.22;;;8.85;100.00
20019;BME280;10170;42.502;26.526;2023-02-18T09:05:28;100255.47;;;8.90;100.00
20019;BME280;10170;42.502;26.526;2023-02-18T09:07:54;100270.00;;;8.79;100.00
20019;BME280;10170;42.502;26.526;2023-02-18T09:10:22;100261.34;;;9.00;100.00
20019;BME280;10170;42.502;26.526;2023-02-18T09:12:48;100272.72;;;9.23;100.00
20019;BME280;10170;42.502;26.526;2023-02-18T09:15:15;100275.03;;;9.40;100.00
20019;BME280;10170;42.502;26.526;2023-02-18T09:17:42;100268.22;;;9.23;100.00
20019;BME280;10170;42.502;26.526;2023-02-18T09:20:09;100264.94;;;9.21;100.00
20019;BME280;10170;42.502;26.526;2023-02-18T09:22:36;100205.81;;;8.69;100.00
20019;BME280;10170;42.502;26.526;2023-02-18T09:25:03;100258.97;;;9.34;100.00
20019;BME280;10170;42.502;26.526;2023-02-18T09:27:30;100252.75;;;9.41;100.00
20019;BME280;10170;42.502;26.526;2023-02-18T09:29:57;100254.66;;;9.91;100.00
20019;BME280;10170;42.502;26.526;2023-02-18T09:32:24;100249.66;;;10.17;100.00
20019;BME280;10170;42.502;26.526;2023-02-18T09:35:01;100243.16;;;10.20;100.00
20019;BME280;10170;42.502;26.526;2023-02-18T09:37:28;100251.41;;;10.10;100.00
20019;BME280;10170;42.502;26.526;2023-02-18T09:39:55;100246.34;;;10.15;100.00
20019;BME280;10170;42.502;26.526;2023-02-18T09:42:28;100235.34;;;10.60;100.00
20019;BME280;10170;42.502;26.526;2023-02-18T09:44:59;100239.69;;;10.89;100.00
20019;BME280;10170;42.502;26.526;2023-02-18T09:47:38;100233.13;;;10.92;100.00
20019;BME280;10170;42.502;26.526;2023-02-18T09:52:51;100198.44;;;10.51;100.00
20019;BME280;10170;42.502;26.526;2023-02-18T09:55:27;100186.81;;;10.31;100.00
20019;BME280;10170;42.502;26.526;2023-02-18T09:58:02;100179.78;;;10.44;100.00
20019;BME280;10170;42.502;26.526;2023-02-18T10:00:39;100189.22;;;10.75;100.00
20019;BME280;10170;42.502;26.526;2023-02-18T10:06:09;100189.91;;;10.83;100.00
20019;BME280;10170;42.502;26.526;2023-02-18T10:08:36;100191.72;;;11.10;100.00
20019;BME280;10170;42.502;26.526;2023-02-18T10:11:11;100193.38;;;11.11;100.00
20019;BME280;10170;42.502;26.526;2023-02-18T10:13:43;100202.13;;;11.05;100.00
20019;BME280;10170;42.502;26.526;2023-02-18T10:16:16;100182.66;;;10.98;100.00
20019;BME280;10170;42.502;26.526;2023-02-18T10:18:45;100188.53;;;10.94;100.00
20019;BME280;10170;42.502;26.526;2023-02-18T10:21:24;100189.56;;;10.93;100.00
20019;BME280;10170;42.502;26.526;2023-02-18T10:24:03;100190.34;;;11.21;100.00
20019;BME280;10170;42.502;26.526;2023-02-18T10:26:33;100183.06;;;11.36;100.00
20019;BME280;10170;42.502;26.526;2023-02-18T10:29:00;100173.31;;;11.15;100.00
20019;BME280;10170;42.502;26.526;2023-02-18T10:31:31;100187.47;;;11.22;100.00
20019;BME280;10170;42.502;26.526;2023-02-18T10:36:55;100160.41;;;11.12;100.00
20019;BME280;10170;42.502;26.526;2023-02-18T10:42:09;100176.78;;;11.50;100.00
20019;BME280;10170;42.502;26.526;2023-02-18T10:49:55;100154.41;;;11.98;92.78
20019;BME280;10170;42.502;26.526;2023-02-18T10:52:26;100151.44;;;11.67;95.63
20019;BME280;10170;42.502;26.526;2023-02-18T10:55:00;100151.50;;;11.87;96.10
20019;BME280;10170;42.502;26.526;2023-02-18T10:57:27;100142.53;;;12.07;91.83
20019;BME280;10170;42.502;26.526;2023-02-18T11:02:24;100140.28;;;12.30;89.27
20019;BME280;10170;42.502;26.526;2023-02-18T11:04:51;100140.91;;;12.13;88.30
20019;BME280;10170;42.502;26.526;2023-02-18T11:07:21;100140.44;;;11.83;94.24
20019;BME280;10170;42.502;26.526;2023-02-18T11:09:57;100122.38;;;11.72;95.19
20019;BME280;10170;42.502;26.526;2023-02-18T11:12:52;100135.38;;;12.08;95.49
20019;BME280;10170;42.502;26.526;2023-02-18T11:15:23;100129.22;;;12.07;92.11
20019;BME280;10170;42.502;26.526;2023-02-18T11:17:53;100122.84;;;12.02;91.00
20019;BME280;10170;42.502;26.526;2023-02-18T11:25:32;100121.59;;;11.98;96.15
20019;BME280;10170;42.502;26.526;2023-02-18T11:28:25;100120.00;;;12.10;97.45
20019;BME280;10170;42.502;26.526;2023-02-18T11:30:53;100109.53;;;12.28;100.00
20019;BME280;10170;42.502;26.526;2023-02-18T11:33:35;100109.06;;;12.77;84.97
20019;BME280;10170;42.502;26.526;2023-02-18T11:41:28;100073.13;;;12.86;80.54
20019;BME280;10170;42.502;26.526;2023-02-18T11:43:56;100053.66;;;12.65;80.57
20019;BME280;10170;42.502;26.526;2023-02-18T11:46:25;100058.38;;;12.70;80.84
20019;BME280;10170;42.502;26.526;2023-02-18T11:48:53;99989.09;;;12.50;80.03
20019;BME280;10170;42.502;26.526;2023-02-18T11:51:24;100046.47;;;12.79;80.42
20019;BME280;10170;42.502;26.526;2023-02-18T11:53:57;100044.75;;;12.91;81.55
20019;BME280;10170;42.502;26.526;2023-02-18T11:56:28;100048.22;;;13.11;83.25
20019;BME280;10170;42.502;26.526;2023-02-18T11:58:55;100035.59;;;13.25;75.60
20019;BME280;10170;42.502;26.526;2023-02-18T12:01:42;100042.16;;;13.66;71.54
20019;BME280;10170;42.502;26.526;2023-02-18T12:04:16;100037.97;;;13.77;68.32
20019;BME280;10170;42.502;26.526;2023-02-18T12:06:51;100040.16;;;13.87;66.67
20019;BME280;10170;42.502;26.526;2023-02-18T12:09:25;100036.34;;;13.69;68.00
20019;BME280;10170;42.502;26.526;2023-02-18T12:11:57;100033.13;;;13.61;70.90
20019;BME280;10170;42.502;26.526;2023-02-18T12:14:25;100032.69;;;13.95;67.12
20019;BME280;10170;42.502;26.526;2023-02-18T12:25:03;100031.06;;;13.94;69.07
20019;BME280;10170;42.502;26.526;2023-02-18T12:27:48;100016.03;;;13.68;70.34
20019;BME280;10170;42.502;26.526;2023-02-18T12:30:40;100013.75;;;13.72;69.48
20019;BME280;10170;42.502;26.526;2023-02-18T12:36:13;99999.53;;;13.47;69.98
20019;BME280;10170;42.502;26.526;2023-02-18T12:39:02;100003.66;;;13.43;72.01
20019;BME280;10170;42.502;26.526;2023-02-18T13:14:52;99985.06;;;13.30;71.62
20019;BME280;10170;42.502;26.526;2023-02-18T13:17:26;99971.09;;;13.28;70.73
20019;BME280;10170;42.502;26.526;2023-02-18T13:19:59;99967.56;;;13.34;71.36
20019;BME280;10170;42.502;26.526;2023-02-18T13:22:29;99978.50;;;13.26;71.38
20019;BME280;10170;42.502;26.526;2023-02-18T13:24:57;99972.88;;;12.96;73.26
20019;BME280;10170;42.502;26.526;2023-02-18T13:27:42;99970.03;;;12.91;77.03
20019;BME280;10170;42.502;26.526;2023-02-18T13:33:36;99954.91;;;12.79;81.80
20019;BME280;10170;42.502;26.526;2023-02-18T13:36:09;99945.00;;;12.86;82.51
20019;BME280;10170;42.502;26.526;2023-02-18T13:41:25;99945.31;;;13.09;78.91
20019;BME280;10170;42.502;26.526;2023-02-18T13:43:52;99934.03;;;13.62;79.07
20019;BME280;10170;42.502;26.526;2023-02-18T13:46:21;99935.75;;;13.82;75.16
20019;BME280;10170;42.502;26.526;2023-02-18T13:51:40;99935.31;;;13.85;79.97
20019;BME280;10170;42.502;26.526;2023-02-18T13:56:45;99927.19;;;13.73;76.70
20019;BME280;10170;42.502;26.526;2023-02-18T14:01:47;99924.06;;;13.76;75.80
20019;BME280;10170;42.502;26.526;2023-02-18T14:26:05;99900.69;;;15.51;63.85
20019;BME280;10170;42.502;26.526;2023-02-18T14:33:43;99907.44;;;15.65;62.76
20019;BME280;10170;42.502;26.526;2023-02-18T14:50:12;99890.78;;;16.09;61.50
20019;BME280;10170;42.502;26.526;2023-02-18T14:52:42;99890.88;;;16.14;60.93
20019;BME280;10170;42.502;26.526;2023-02-18T14:55:18;99885.50;;;16.26;60.56
20019;BME280;10170;42.502;26.526;2023-02-18T14:57:51;99891.56;;;16.21;61.01
20019;BME280;10170;42.502;26.526;2023-02-18T15:00:22;99893.75;;;16.36;60.74
20019;BME280;10170;42.502;26.526;2023-02-18T15:02:52;99887.09;;;16.50;60.15
20019;BME280;10170;42.502;26.526;2023-02-18T15:05:22;99885.09;;;16.57;59.45
20019;BME280;10170;42.502;26.526;2023-02-18T15:08:11;99887.06;;;16.90;58.36
20019;BME280;10170;42.502;26.526;2023-02-18T15:13:29;99894.19;;;17.12;56.86
20019;BME280;10170;42.502;26.526;2023-02-18T15:16:00;99895.00;;;17.13;56.49
20019;BME280;10170;42.502;26.526;2023-02-18T15:18:35;99869.59;;;17.04;56.26
20019;BME280;10170;42.502;26.526;2023-02-18T15:21:05;99889.13;;;17.16;55.76
20019;BME280;10170;42.502;26.526;2023-02-18T15:23:38;99896.44;;;17.04;56.06
20019;BME280;10170;42.502;26.526;2023-02-18T15:26:06;99893.59;;;16.94;56.19
20019;BME280;10170;42.502;26.526;2023-02-18T15:28:49;99893.53;;;17.05;56.00
20019;BME280;10170;42.502;26.526;2023-02-18T15:31:16;99895.81;;;16.85;56.44
20019;BME280;10170;42.502;26.526;2023-02-18T15:33:46;99898.06;;;16.88;56.24
20019;BME280;10170;42.502;26.526;2023-02-18T15:36:14;99897.66;;;16.96;56.02
20019;BME280;10170;42.502;26.526;2023-02-18T15:38:41;99866.50;;;16.95;56.16
20019;BME280;10170;42.502;26.526;2023-02-18T15:41:12;99887.69;;;17.08;55.92
20019;BME280;10170;42.502;26.526;2023-02-18T15:43:59;99895.75;;;16.80;56.44
20019;BME280;10170;42.502;26.526;2023-02-18T15:46:27;99885.34;;;16.83;56.05
20019;BME280;10170;42.502;26.526;2023-02-18T15:48:55;99883.91;;;16.64;55.93
20019;BME280;10170;42.502;26.526;2023-02-18T15:51:26;99902.78;;;16.69;56.36